createdAt,value
2022-12-11T00:00:27.739Z,246.05
2022-12-11T00:02:54.829Z,266.70
2022-12-11T00:05:22.568Z,256.08
2022-12-11T00:07:49.734Z,284.38
2022-12-11T00:10:17.127Z,253.30
2022-12-11T00:12:43.965Z,271.90
2022-12-11T00:15:13.936Z,248.07
2022-12-11T00:17:40.887Z,235.48
2022-12-11T00:20:10.474Z,241.43
2022-12-11T00:22:37.908Z,226.93
2022-12-11T00:25:05.756Z,260.67
2022-12-11T00:27:32.703Z,241.93
2022-12-11T00:29:59.585Z,244.05
2022-12-11T00:32:28.438Z,271.63
2022-12-11T00:34:55.564Z,283.55
2022-12-11T00:37:23.801Z,258.58
2022-12-11T00:39:51.492Z,233.93
2022-12-11T00:42:18.412Z,270.92
2022-12-11T00:44:45.383Z,243.32
2022-12-11T00:47:15.258Z,266.48
2022-12-11T00:49:49.412Z,243.73
2022-12-11T00:52:18.138Z,264.02
2022-12-11T00:54:45.605Z,263.92
2022-12-11T00:57:12.516Z,265.08
2022-12-11T00:59:41.008Z,250.90
2022-12-11T01:02:07.771Z,260.35
2022-12-11T01:04:36.865Z,234.93
2022-12-11T01:07:03.824Z,266.67
2022-12-11T01:09:49.451Z,273.33
2022-12-11T01:12:16.316Z,276.95
2022-12-11T01:14:43.527Z,313.52
2022-12-11T01:17:11.224Z,277.70
2022-12-11T01:19:38.092Z,335.13
2022-12-11T01:22:04.928Z,319.10
2022-12-11T01:24:31.783Z,321.35
2022-12-11T01:26:58.637Z,299.20
2022-12-11T01:29:25.533Z,300.10
2022-12-11T01:31:52.327Z,290.58
2022-12-11T01:34:19.157Z,295.13
2022-12-11T01:36:45.983Z,267.52
2022-12-11T01:39:12.971Z,316.30
2022-12-11T01:41:39.985Z,282.83
2022-12-11T01:44:15.932Z,295.10
2022-12-11T01:46:43.456Z,315.80
2022-12-11T01:49:14.003Z,293.50
2022-12-11T01:52:07.183Z,295.13
2022-12-11T01:54:35.210Z,251.73
2022-12-11T01:57:06.649Z,260.77
2022-12-11T02:02:11.380Z,305.85
2022-12-11T02:04:40.156Z,268.98
2022-12-11T02:07:07.029Z,258.48
2022-12-11T02:09:36.651Z,268.35
2022-12-11T02:12:35.020Z,273.77
2022-12-11T02:15:29.789Z,270.00
2022-12-11T02:18:21.248Z,219.13
2022-12-11T02:20:57.151Z,264.05
2022-12-11T02:23:41.198Z,241.07
2022-12-11T02:26:26.745Z,236.20
2022-12-11T02:29:00.297Z,244.23
2022-12-11T02:31:34.553Z,234.30
2022-12-11T02:34:03.602Z,251.45
2022-12-11T02:36:40.380Z,236.30
2022-12-11T02:39:11.129Z,225.82
2022-12-11T02:41:44.186Z,238.40
2022-12-11T02:44:14.020Z,221.82
2022-12-11T02:46:42.939Z,219.15
2022-12-11T02:49:12.554Z,210.77
2022-12-11T02:51:44.364Z,206.07
2022-12-11T02:54:17.907Z,195.85
2022-12-11T02:57:05.106Z,197.10
2022-12-11T02:59:44.328Z,199.82
2022-12-11T03:02:17.643Z,181.98
2022-12-11T03:04:47.629Z,188.80
2022-12-11T03:07:18.897Z,174.25
2022-12-11T03:09:48.766Z,175.57
2022-12-11T03:12:21.090Z,154.70
2022-12-11T03:14:51.206Z,174.10
2022-12-11T03:17:25.532Z,172.48
2022-12-11T03:20:14.286Z,157.13
2022-12-11T03:22:50.029Z,162.48
2022-12-11T03:25:22.187Z,166.93
2022-12-11T03:28:00.637Z,163.07
2022-12-11T03:30:29.050Z,156.90
2022-12-11T03:33:04.744Z,144.25
2022-12-11T03:35:52.543Z,130.10
2022-12-11T03:38:29.970Z,129.15
2022-12-11T03:41:00.950Z,136.25
2022-12-11T03:43:30.083Z,127.82
2022-12-11T03:45:59.120Z,127.80
2022-12-11T03:48:30.966Z,136.15
2022-12-11T03:51:02.029Z,150.25
2022-12-11T03:53:32.384Z,142.98
2022-12-11T03:56:00.690Z,125.57
2022-12-11T03:58:27.557Z,128.30
2022-12-11T04:00:54.444Z,126.75
2022-12-11T04:03:25.954Z,105.43
2022-12-11T04:08:21.563Z,96.00
2022-12-11T04:11:09.523Z,95.43
2022-12-11T04:13:36.963Z,92.22
2022-12-11T04:16:04.359Z,100.78
2022-12-11T04:18:49.575Z,102.95
2022-12-11T04:21:39.652Z,108.53
2022-12-11T04:24:16.289Z,97.82
2022-12-11T04:26:45.073Z,112.35
2022-12-11T04:29:12.190Z,98.70
2022-12-11T04:31:39.444Z,118.68
2022-12-11T04:34:06.655Z,105.25
2022-12-11T04:36:33.699Z,103.28
2022-12-11T04:39:00.525Z,103.82
2022-12-11T04:41:27.620Z,98.38
2022-12-11T04:43:54.677Z,99.75
2022-12-11T04:46:24.501Z,84.10
2022-12-11T04:48:57.339Z,90.28
2022-12-11T04:51:25.396Z,93.75
2022-12-11T04:53:54.396Z,88.47
2022-12-11T04:56:22.547Z,91.10
2022-12-11T04:58:49.429Z,95.82
2022-12-11T05:01:18.981Z,100.18
2022-12-11T05:03:47.197Z,101.07
2022-12-11T05:06:14.542Z,99.38
2022-12-11T05:08:45.375Z,84.70
2022-12-11T05:11:14.820Z,92.82
2022-12-11T05:13:42.311Z,91.10
2022-12-11T05:16:11.537Z,90.55
2022-12-11T05:18:38.748Z,85.40
2022-12-11T05:21:08.684Z,87.63
2022-12-11T05:23:35.872Z,83.63
2022-12-11T05:26:07.865Z,91.45
2022-12-11T05:28:37.087Z,94.90
2022-12-11T05:31:12.317Z,81.35
2022-12-11T05:33:39.470Z,91.80
2022-12-11T05:36:07.574Z,85.75
2022-12-11T05:38:34.831Z,83.13
2022-12-11T05:41:04.047Z,77.35
2022-12-11T05:43:33.453Z,80.30
2022-12-11T05:46:17.046Z,77.80
2022-12-11T05:48:46.253Z,84.03
2022-12-11T05:51:14.434Z,77.70
2022-12-11T05:53:43.118Z,77.40
2022-12-11T05:56:26.705Z,84.35
2022-12-11T05:58:54.347Z,78.35
2022-12-11T06:01:42.417Z,78.63
2022-12-11T06:04:11.237Z,76.70
2022-12-11T06:06:40.415Z,76.28
2022-12-11T06:09:07.576Z,76.32
2022-12-11T06:11:35.296Z,78.57
2022-12-11T06:14:03.274Z,72.85
2022-12-11T06:16:30.173Z,76.30
2022-12-11T06:18:58.451Z,73.43
2022-12-11T06:21:32.001Z,85.10
2022-12-11T06:24:01.686Z,76.38
2022-12-11T06:26:29.308Z,81.45
2022-12-11T06:28:56.235Z,82.10
2022-12-11T06:31:23.103Z,75.38
2022-12-11T06:33:50.069Z,75.07
2022-12-11T06:36:20.760Z,84.53
2022-12-11T06:38:49.184Z,85.60
2022-12-11T06:41:17.098Z,90.40
2022-12-11T06:43:44.077Z,81.15
2022-12-11T06:46:15.103Z,85.57
2022-12-11T06:48:43.040Z,83.30
2022-12-11T06:51:21.131Z,78.32
2022-12-11T06:53:54.140Z,82.25
2022-12-11T06:56:22.590Z,82.00
2022-12-11T06:58:51.973Z,80.70
2022-12-11T07:01:26.388Z,79.53
2022-12-11T07:03:54.668Z,86.43
2022-12-11T07:06:22.489Z,79.60
2022-12-11T07:08:49.774Z,81.60
2022-12-11T07:11:18.169Z,77.72
2022-12-11T07:13:45.149Z,82.13
2022-12-11T07:16:14.216Z,79.70
2022-12-11T07:18:52.128Z,89.78
2022-12-11T07:21:23.437Z,86.13
2022-12-11T07:23:50.654Z,86.63
2022-12-11T07:26:20.287Z,82.32
2022-12-11T07:28:47.479Z,78.10
2022-12-11T07:31:20.869Z,80.60
2022-12-11T07:33:53.206Z,80.50
2022-12-11T07:36:20.036Z,79.95
2022-12-11T07:38:46.884Z,82.50
2022-12-11T07:41:15.012Z,83.63
2022-12-11T07:43:42.810Z,83.80
2022-12-11T07:46:16.201Z,88.05
2022-12-11T07:48:45.590Z,84.15
2022-12-11T07:51:26.629Z,92.25
2022-12-11T07:53:56.074Z,85.20
2022-12-11T07:56:26.791Z,81.75
2022-12-11T07:58:53.854Z,87.55
2022-12-11T08:01:24.538Z,85.75
2022-12-11T08:03:51.897Z,83.82
2022-12-11T08:06:21.419Z,90.47
2022-12-11T08:08:50.913Z,81.65
2022-12-11T08:11:19.146Z,86.07
2022-12-11T08:13:48.990Z,86.22
2022-12-11T08:16:17.280Z,83.47
2022-12-11T08:18:47.407Z,79.57
2022-12-11T08:21:23.161Z,88.13
2022-12-11T08:23:51.478Z,90.70
2022-12-11T08:26:21.338Z,80.25
2022-12-11T08:28:48.127Z,79.32
2022-12-11T08:31:16.093Z,88.15
2022-12-11T08:33:43.447Z,77.15
2022-12-11T08:36:13.250Z,76.55
2022-12-11T08:38:40.726Z,80.90
2022-12-11T08:41:13.031Z,74.72
2022-12-11T08:43:41.981Z,83.15
2022-12-11T08:46:09.689Z,74.57
2022-12-11T08:48:38.188Z,72.03
2022-12-11T08:51:10.489Z,72.60
2022-12-11T08:53:38.993Z,76.85
2022-12-11T08:56:12.186Z,74.10
2022-12-11T08:58:40.153Z,78.72
2022-12-11T09:01:10.193Z,70.32
2022-12-11T09:03:37.506Z,71.03
2022-12-11T09:06:09.416Z,73.97
2022-12-11T09:08:36.482Z,82.03
2022-12-11T09:11:25.817Z,71.18
2022-12-11T09:13:53.193Z,70.78
2022-12-11T09:16:22.279Z,69.95
2022-12-11T09:18:52.378Z,66.35
2022-12-11T09:21:22.215Z,67.28
2022-12-11T09:23:49.835Z,64.53
2022-12-11T09:26:20.161Z,67.07
2022-12-11T09:28:47.507Z,67.50
2022-12-11T09:31:26.725Z,63.67
2022-12-11T09:34:02.479Z,63.47
2022-12-11T09:36:29.949Z,70.82
2022-12-11T09:39:01.795Z,64.05
2022-12-11T09:41:59.350Z,62.97
2022-12-11T09:44:54.747Z,67.85
2022-12-11T09:47:51.206Z,65.45
2022-12-11T09:50:32.770Z,59.72
2022-12-11T09:56:07.101Z,63.17
2022-12-11T09:58:39.703Z,60.53
2022-12-11T10:01:29.222Z,63.47
2022-12-11T10:04:11.628Z,61.95
2022-12-11T10:06:47.890Z,65.25
2022-12-11T10:09:30.117Z,56.70
2022-12-11T10:12:28.835Z,60.17
2022-12-11T10:15:23.567Z,56.35
2022-12-11T10:17:53.902Z,55.47
2022-12-11T10:20:33.530Z,55.35
2022-12-11T10:23:02.828Z,61.47
2022-12-11T10:25:41.986Z,56.13
2022-12-11T10:28:28.820Z,57.40
2022-12-11T10:31:01.842Z,56.58
2022-12-11T10:33:37.663Z,52.75
2022-12-11T10:36:07.908Z,52.65
2022-12-11T10:38:41.452Z,51.53
2022-12-11T10:41:11.365Z,54.50
2022-12-11T10:43:46.611Z,50.50
2022-12-11T10:46:28.796Z,55.40
2022-12-11T10:48:58.749Z,58.97
2022-12-11T10:51:37.909Z,52.33
2022-12-11T10:54:15.643Z,61.45
2022-12-11T10:56:47.278Z,55.55
2022-12-11T10:59:24.451Z,55.50
2022-12-11T11:01:52.003Z,51.28
2022-12-11T11:04:37.371Z,45.17
2022-12-11T11:07:24.125Z,48.08
2022-12-11T11:10:02.763Z,49.55
2022-12-11T11:12:29.815Z,47.67
2022-12-11T11:15:01.206Z,49.80
2022-12-11T11:17:34.476Z,47.05
2022-12-11T11:20:12.116Z,48.97
2022-12-11T11:22:50.097Z,52.35
2022-12-11T11:25:38.952Z,42.15
2022-12-11T11:28:15.666Z,48.08
2022-12-11T11:30:56.144Z,47.20
2022-12-11T11:33:25.523Z,43.63
2022-12-11T11:36:02.499Z,43.63
2022-12-11T11:38:37.763Z,46.72
2022-12-11T11:41:17.651Z,46.88
2022-12-11T11:44:15.568Z,49.22
2022-12-11T11:47:05.173Z,43.65
2022-12-11T11:49:58.428Z,48.42
2022-12-11T11:52:29.762Z,44.15
2022-12-11T11:55:10.608Z,47.63
2022-12-11T11:58:01.088Z,40.88
2022-12-11T12:00:35.043Z,47.47
2022-12-11T12:03:09.650Z,55.90
2022-12-11T12:06:10.934Z,42.60
2022-12-11T12:08:58.049Z,36.50
2022-12-11T12:11:43.006Z,44.00
2022-12-11T12:14:52.197Z,43.45
2022-12-11T12:17:56.167Z,41.63
2022-12-11T12:20:31.113Z,39.38
2022-12-11T12:23:06.778Z,45.53
2022-12-11T12:25:39.863Z,41.60
2022-12-11T12:28:21.898Z,43.58
2022-12-11T12:31:01.222Z,40.40
2022-12-11T12:33:54.274Z,41.40
2022-12-11T12:36:36.182Z,45.80
2022-12-11T12:39:26.085Z,46.03
2022-12-11T12:42:25.702Z,44.08
2022-12-11T12:45:00.701Z,39.55
2022-12-11T12:47:33.006Z,44.65
2022-12-11T12:50:01.533Z,50.63
2022-12-11T12:52:37.779Z,76.38
2022-12-11T12:55:14.304Z,48.30
2022-12-11T12:57:54.666Z,81.38
2022-12-11T13:00:36.156Z,68.38
2022-12-11T13:03:13.561Z,52.40
2022-12-11T13:05:45.069Z,46.05
2022-12-11T13:10:43.229Z,51.90
2022-12-11T13:13:38.526Z,86.90
2022-12-11T13:16:18.642Z,44.65
2022-12-11T13:18:49.978Z,43.65
2022-12-11T13:21:26.777Z,47.72
2022-12-11T13:23:54.952Z,51.75
2022-12-11T13:26:33.665Z,44.80
2022-12-11T13:29:01.109Z,43.53
2022-12-11T13:31:40.499Z,45.42
2022-12-11T13:34:24.040Z,50.85
2022-12-11T13:36:55.110Z,47.83
2022-12-11T13:39:28.303Z,54.70
2022-12-11T13:42:03.245Z,53.45
2022-12-11T13:44:35.144Z,47.08
2022-12-11T13:47:04.471Z,47.88
2022-12-11T13:49:38.846Z,52.30
2022-12-11T13:52:06.419Z,55.60
2022-12-11T13:54:38.900Z,54.53
2022-12-11T13:57:10.513Z,59.40
2022-12-11T13:59:43.483Z,57.42
2022-12-11T14:02:29.423Z,59.03
2022-12-11T14:05:16.924Z,52.90
2022-12-11T14:07:52.847Z,52.03
2022-12-11T14:10:32.169Z,56.67
2022-12-11T14:13:31.508Z,58.20
2022-12-11T14:15:59.509Z,58.95
2022-12-11T14:18:34.319Z,64.03
2022-12-11T14:21:07.549Z,62.83
2022-12-11T14:23:37.795Z,64.00
2022-12-11T14:26:17.843Z,62.00
2022-12-11T14:28:44.879Z,64.30
2022-12-11T14:31:17.592Z,60.00
2022-12-11T14:34:07.258Z,60.28
2022-12-11T14:36:37.419Z,55.72
2022-12-11T14:39:10.600Z,62.05
2022-12-11T14:41:48.413Z,62.92
2022-12-11T14:44:20.743Z,66.32
2022-12-11T14:46:54.876Z,65.07
2022-12-11T14:49:25.090Z,65.28
2022-12-11T14:51:55.541Z,72.97
2022-12-11T14:54:39.694Z,68.40
2022-12-11T14:57:11.370Z,68.10
2022-12-11T14:59:47.817Z,68.43
2022-12-11T15:02:34.120Z,56.63
2022-12-11T15:05:18.365Z,61.47
2022-12-11T15:07:56.088Z,69.85
2022-12-11T15:10:56.752Z,68.72
2022-12-11T15:13:24.659Z,70.68
2022-12-11T15:15:56.589Z,74.32
2022-12-11T15:18:28.722Z,66.97
2022-12-11T15:20:59.944Z,68.40
2022-12-11T15:23:28.043Z,79.00
2022-12-11T15:25:59.369Z,71.65
2022-12-11T15:28:37.704Z,69.07
2022-12-11T15:31:28.093Z,68.88
2022-12-11T15:33:55.701Z,62.03
2022-12-11T15:36:30.426Z,65.72
2022-12-11T15:38:58.181Z,65.75
2022-12-11T15:41:28.720Z,59.45
2022-12-11T15:43:59.426Z,67.73
2022-12-11T15:46:28.229Z,69.05
2022-12-11T15:48:57.284Z,70.03
2022-12-11T15:51:27.644Z,60.28
2022-12-11T15:53:55.473Z,66.95
2022-12-11T15:56:22.929Z,58.28
2022-12-11T15:58:50.103Z,58.75
2022-12-11T16:01:18.114Z,63.15
2022-12-11T16:03:46.261Z,66.93
2022-12-11T16:06:14.145Z,71.72
2022-12-11T16:08:42.446Z,57.40
2022-12-11T16:11:13.264Z,65.30
2022-12-11T16:13:40.420Z,59.13
2022-12-11T16:16:08.950Z,62.60
2022-12-11T16:18:36.328Z,63.70
2022-12-11T16:21:06.456Z,68.78
2022-12-11T16:23:34.859Z,70.00
2022-12-11T16:26:06.972Z,61.85
2022-12-11T16:28:35.281Z,73.47
2022-12-11T16:31:03.888Z,63.25
2022-12-11T16:33:31.323Z,66.72
2022-12-11T16:35:59.235Z,63.22
2022-12-11T16:38:26.528Z,72.43
2022-12-11T16:41:01.228Z,62.90
2022-12-11T16:43:28.324Z,62.22
2022-12-11T16:45:56.001Z,72.10
2022-12-11T16:48:22.986Z,64.28
2022-12-11T16:50:52.431Z,62.53
2022-12-11T16:53:19.323Z,66.13
2022-12-11T16:55:46.155Z,61.40
2022-12-11T16:59:06.672Z,60.60
2022-12-11T17:01:15.185Z,65.35
2022-12-11T17:03:43.847Z,70.28
2022-12-11T17:06:14.148Z,60.15
2022-12-11T17:08:42.701Z,64.32
2022-12-11T17:11:13.135Z,57.95
2022-12-11T17:13:40.543Z,59.00
2022-12-11T17:16:11.149Z,50.58
2022-12-11T17:18:38.727Z,54.13
2022-12-11T17:21:07.644Z,53.70
2022-12-11T17:23:34.690Z,44.03
2022-12-11T17:26:02.734Z,51.92
2022-12-11T17:28:30.471Z,49.92
2022-12-11T17:30:57.499Z,61.60
2022-12-11T17:33:24.735Z,50.60
2022-12-11T17:35:51.591Z,52.80
2022-12-11T17:38:18.703Z,52.17
2022-12-11T17:40:47.726Z,56.45
2022-12-11T17:43:14.777Z,52.60
2022-12-11T17:45:47.282Z,53.28
2022-12-11T17:48:16.976Z,47.13
2022-12-11T17:50:46.682Z,47.63
2022-12-11T17:53:16.013Z,54.03
2022-12-11T17:55:44.702Z,46.97
2022-12-11T17:58:22.877Z,47.28
2022-12-11T18:00:53.202Z,45.90
2022-12-11T18:03:21.023Z,53.72
2022-12-11T18:05:53.677Z,57.47
2022-12-11T18:08:30.067Z,45.92
2022-12-11T18:11:03.628Z,47.55
2022-12-11T18:13:32.766Z,48.80
2022-12-11T18:16:01.734Z,45.95
2022-12-11T18:18:29.033Z,51.13
2022-12-11T18:20:55.805Z,53.85
2022-12-11T18:23:23.484Z,48.03
2022-12-11T18:25:50.303Z,59.85
2022-12-11T18:28:17.441Z,56.25
2022-12-11T18:30:44.828Z,49.50
2022-12-11T18:33:13.077Z,47.33
2022-12-11T18:35:41.439Z,46.55
2022-12-11T18:38:08.366Z,41.15
2022-12-11T18:40:35.186Z,47.20
2022-12-11T18:43:02.033Z,49.63
2022-12-11T18:45:28.999Z,53.45
2022-12-11T18:47:56.596Z,52.38
2022-12-11T18:50:23.423Z,47.08
2022-12-11T18:52:54.301Z,46.83
2022-12-11T18:55:23.194Z,48.33
2022-12-11T18:57:50.067Z,49.47
2022-12-11T19:00:17.623Z,50.85
2022-12-11T19:02:44.953Z,50.85
2022-12-11T19:05:12.875Z,60.38
2022-12-11T19:07:40.150Z,57.35
2022-12-11T19:10:07.977Z,50.45
2022-12-11T19:12:34.796Z,48.50
2022-12-11T19:15:01.707Z,48.00
2022-12-11T19:17:28.961Z,52.88
2022-12-11T19:19:56.023Z,48.83
2022-12-11T19:22:23.088Z,53.47
2022-12-11T19:24:50.014Z,58.78
2022-12-11T19:27:16.893Z,52.97
2022-12-11T19:29:43.896Z,53.17
2022-12-11T19:32:10.814Z,55.38
2022-12-11T19:34:39.103Z,52.50
2022-12-11T19:37:05.965Z,50.88
2022-12-11T19:39:33.073Z,56.45
2022-12-11T19:42:00.083Z,51.03
2022-12-11T19:44:27.248Z,56.72
2022-12-11T19:46:55.260Z,53.33
2022-12-11T19:49:22.668Z,51.92
2022-12-11T19:51:49.725Z,49.08
2022-12-11T19:54:18.036Z,51.22
2022-12-11T19:56:47.800Z,57.15
2022-12-11T19:59:16.867Z,51.58
2022-12-11T20:01:46.832Z,53.20
2022-12-11T20:04:20.678Z,55.78
2022-12-11T20:06:48.025Z,55.10
2022-12-11T20:09:15.505Z,50.13
2022-12-11T20:11:44.198Z,49.13
2022-12-11T20:14:18.897Z,48.35
2022-12-11T20:17:10.202Z,50.95
2022-12-11T20:19:33.219Z,56.13
2022-12-11T20:22:00.085Z,52.97
2022-12-11T20:24:26.943Z,45.10
2022-12-11T20:26:54.502Z,48.80
2022-12-11T20:29:21.320Z,51.70
2022-12-11T20:31:51.037Z,46.47
2022-12-11T20:34:18.183Z,47.58
2022-12-11T20:36:46.663Z,49.05
2022-12-11T20:39:13.525Z,48.58
2022-12-11T20:41:40.660Z,43.75
2022-12-11T20:44:07.591Z,49.67
2022-12-11T20:46:35.345Z,54.53
2022-12-11T20:49:03.394Z,44.30
2022-12-11T20:51:32.321Z,40.33
2022-12-11T20:53:59.737Z,40.45
2022-12-11T20:56:30.120Z,41.08
2022-12-11T20:58:58.775Z,40.72
2022-12-11T21:01:29.371Z,48.70
2022-12-11T21:03:56.752Z,46.58
2022-12-11T21:06:32.967Z,50.85
2022-12-11T21:09:01.951Z,51.83
2022-12-11T21:11:29.411Z,49.30
2022-12-11T21:13:56.345Z,43.55
2022-12-11T21:16:24.343Z,43.58
2022-12-11T21:18:52.086Z,43.67
2022-12-11T21:21:19.250Z,76.25
2022-12-11T21:23:46.244Z,40.33
2022-12-11T21:26:13.940Z,43.95
2022-12-11T21:28:40.986Z,40.10
2022-12-11T21:31:11.370Z,36.38
2022-12-11T21:33:38.612Z,40.83
2022-12-11T21:36:07.986Z,40.03
2022-12-11T21:38:34.781Z,39.25
2022-12-11T21:41:17.012Z,40.53
2022-12-11T21:44:56.557Z,36.40
2022-12-11T21:46:33.744Z,39.75
2022-12-11T21:49:00.754Z,40.70
2022-12-11T21:51:37.094Z,38.72
2022-12-11T21:54:07.484Z,40.53
2022-12-11T21:56:34.430Z,39.65
2022-12-11T21:59:04.302Z,39.85
2022-12-11T22:01:37.405Z,34.00
2022-12-11T22:04:05.331Z,42.92
2022-12-11T22:06:34.074Z,37.20
2022-12-11T22:09:01.145Z,38.50
2022-12-11T22:11:31.720Z,44.05
2022-12-11T22:13:58.843Z,52.07
2022-12-11T22:16:25.785Z,45.60
2022-12-11T22:18:52.748Z,42.08
2022-12-11T22:21:19.933Z,46.47
2022-12-11T22:23:47.374Z,43.42
2022-12-11T22:26:23.178Z,40.20
2022-12-11T22:28:50.815Z,40.92
2022-12-11T22:31:20.700Z,45.17
2022-12-11T22:33:49.999Z,42.67
2022-12-11T22:36:20.033Z,38.47
2022-12-11T22:38:47.584Z,44.42
2022-12-11T22:41:28.486Z,41.72
2022-12-11T22:43:56.192Z,35.40
2022-12-11T22:46:26.197Z,42.92
2022-12-11T22:48:53.896Z,39.58
2022-12-11T22:51:21.197Z,37.17
2022-12-11T22:53:48.419Z,37.97
2022-12-11T22:56:15.356Z,37.85
2022-12-11T22:58:42.373Z,43.05
2022-12-11T23:01:15.157Z,40.75
2022-12-11T23:03:42.700Z,36.58
2022-12-11T23:06:12.917Z,42.90
2022-12-11T23:08:40.721Z,38.17
2022-12-11T23:11:16.656Z,41.67
2022-12-11T23:13:44.173Z,40.58
2022-12-11T23:16:11.925Z,45.97
2022-12-11T23:18:39.434Z,41.97
2022-12-11T23:21:06.665Z,42.15
2022-12-11T23:23:33.573Z,39.45
2022-12-11T23:26:00.719Z,41.42
2022-12-11T23:28:27.547Z,40.00
2022-12-11T23:30:55.165Z,39.63
2022-12-11T23:33:22.394Z,41.58
2022-12-11T23:35:49.490Z,62.83
2022-12-11T23:38:17.144Z,45.95
2022-12-11T23:40:44.211Z,43.85
2022-12-11T23:43:11.140Z,40.30
2022-12-11T23:45:38.036Z,41.28
2022-12-11T23:48:04.831Z,43.53
2022-12-11T23:50:33.010Z,39.97
2022-12-11T23:53:00.334Z,44.47
2022-12-11T23:55:27.558Z,43.70
2022-12-11T23:57:54.561Z,44.05
